Time;durP1;ratioP1;P1;durP2;ratioP2;P2;SDS_P1;SDS_P2;PMS_P1;PMS_P2;Temp;Humidity;BMP_temperature;BMP_pressure;BME280_temperature;BME280_humidity;BME280_pressure;Samples;Min_cycle;Max_cycle;Signal;HPM_P1;HPM_P2
2021/10/31 00:00:36;;;;;;;13.18;10.32;;;;;;;9.09;100.00;95467.84;6365974;22;20077;-59
2021/10/31 00:03:02;;;;;;;9.13;8.20;;;;;;;9.09;100.00;95462.56;6366455;22;20346;-58
2021/10/31 00:05:27;;;;;;;7.18;6.10;;;;;;;9.08;100.00;95461.72;6366160;22;20005;-59
2021/10/31 00:07:52;;;;;;;5.25;4.75;;;;;;;9.06;100.00;95452.31;6366166;22;20010;-59
2021/10/31 00:10:20;;;;;;;6.00;4.90;;;;;;;9.09;100.00;95446.81;6365912;22;20051;-59
2021/10/31 00:12:45;;;;;;;5.38;4.57;;;;;;;9.07;100.00;95444.31;6366605;22;20077;-58
2021/10/31 00:15:11;;;;;;;6.75;4.25;;;;;;;9.07;100.00;95446.94;6365812;22;20081;-58
2021/10/31 00:17:37;;;;;;;6.93;4.45;;;;;;;9.05;100.00;95446.25;6366170;22;20013;-58
2021/10/31 00:20:04;;;;;;;4.32;3.83;;;;;;;9.00;100.00;95441.41;6366367;22;20089;-59
2021/10/31 00:22:29;;;;;;;4.22;3.92;;;;;;;8.95;100.00;95453.28;6365807;22;20060;-58
2021/10/31 00:24:55;;;;;;;4.47;4.07;;;;;;;9.00;100.00;95448.47;6366084;22;20002;-59
2021/10/31 00:27:20;;;;;;;4.35;4.05;;;;;;;9.08;100.00;95440.72;6366317;22;20010;-59
2021/10/31 00:29:45;;;;;;;4.63;4.18;;;;;;;9.09;100.00;95450.25;6366325;22;20006;-59
2021/10/31 00:32:11;;;;;;;4.28;3.65;;;;;;;9.10;100.00;95449.28;6366052;22;20002;-59
2021/10/31 00:34:36;;;;;;;4.15;3.85;;;;;;;9.10;100.00;95440.59;6366348;22;20426;-59
2021/10/31 00:37:02;;;;;;;4.15;3.85;;;;;;;9.32;100.00;95449.97;6365823;22;20007;-59
2021/10/31 00:39:29;;;;;;;4.10;3.80;;;;;;;9.15;100.00;95447.06;6365984;22;20002;-59
2021/10/31 00:41:54;;;;;;;4.18;3.85;;;;;;;9.12;100.00;95457.03;6366405;22;20006;-59
2021/10/31 00:44:20;;;;;;;4.40;4.10;;;;;;;9.22;100.00;95451.78;6365874;22;20007;-59
2021/10/31 00:46:45;;;;;;;4.28;3.97;;;;;;;9.12;100.00;95455.22;6366317;22;20334;-58
2021/10/31 00:49:10;;;;;;;5.47;5.07;;;;;;;9.11;100.00;95456.19;6366298;22;20014;-58
2021/10/31 00:51:37;;;;;;;5.55;5.05;;;;;;;9.14;100.00;95461.16;6365647;22;20002;-59
2021/10/31 00:54:02;;;;;;;7.10;6.05;;;;;;;9.13;100.00;95451.63;6365498;22;20009;-58
2021/10/31 00:56:28;;;;;;;8.90;7.18;;;;;;;9.15;100.00;95462.84;6365620;22;20010;-59
2021/10/31 00:58:54;;;;;;;7.03;6.40;;;;;;;9.21;100.00;95464.06;6365804;22;20006;-59
2021/10/31 01:01:22;;;;;;;7.07;6.43;;;;;;;9.28;100.00;95472.25;6366044;22;19998;-58
2021/10/31 01:03:48;;;;;;;6.82;6.13;;;;;;;9.25;100.00;95470.72;6365836;22;20007;-59
2021/10/31 01:06:58;;;;;;;7.25;6.03;;;;;;;9.24;100.00;95476.94;6365520;22;20018;-58
2021/10/31 01:09:42;;;;;;;6.45;5.95;;;;;;;9.23;100.00;95469.22;6238224;23;20008;-59
2021/10/31 01:12:32;;;;;;;6.80;6.20;;;;;;;9.29;100.00;95473.91;6355266;22;20010;-58
2021/10/31 01:15:20;;;;;;;7.07;6.38;;;;;;;9.31;100.00;95467.53;6365461;22;20022;-58
2021/10/31 01:18:13;;;;;;;6.88;6.18;;;;;;;9.36;100.00;95464.47;6365835;22;20003;-59
2021/10/31 01:21:29;;;;;;;10.95;6.05;;;;;;;9.39;100.00;95464.19;6365685;22;20033;-59
2021/10/31 01:24:25;;;;;;;6.20;5.60;;;;;;;9.39;100.00;95456.31;6312227;22;20063;-59
2021/10/31 01:27:03;;;;;;;8.15;5.30;;;;;;;9.41;100.00;95446.53;6366393;22;20507;-59
2021/10/31 01:30:11;;;;;;;10.88;5.68;;;;;;;9.43;100.00;95457.72;6365840;22;19998;-59
2021/10/31 01:33:10;;;;;;;6.25;5.65;;;;;;;9.43;100.00;95470.00;6349000;22;20458;-59
2021/10/31 01:35:45;;;;;;;11.18;8.82;;;;;;;9.58;100.00;95462.50;6366082;22;20002;-59
2021/10/31 01:38:34;;;;;;;15.50;11.35;;;;;;;9.52;100.00;95442.06;6365868;22;19998;-59
2021/10/31 01:41:00;;;;;;;13.90;10.32;;;;;;;9.51;100.00;95440.41;6365821;22;20485;-59
2021/10/31 01:43:40;;;;;;;8.07;7.38;;;;;;;9.50;100.00;95439.56;6365464;22;20030;-59
2021/10/31 01:46:31;;;;;;;6.40;5.20;;;;;;;9.53;100.00;95425.31;6366025;22;20002;-59
2021/10/31 01:49:02;;;;;;;5.10;4.60;;;;;;;9.54;100.00;95417.31;6364590;22;19998;-59
2021/10/31 01:51:36;;;;;;;5.07;4.38;;;;;;;9.55;100.00;95421.59;6365182;22;20010;-59
2021/10/31 01:54:05;;;;;;;11.38;4.10;;;;;;;9.57;100.00;95429.31;6365439;22;20458;-59
2021/10/31 01:56:34;;;;;;;5.72;3.42;;;;;;;9.68;100.00;95429.16;6365448;22;20006;-59
2021/10/31 01:59:09;;;;;;;3.85;3.38;;;;;;;9.69;100.00;95425.56;6365526;22;20026;-59
2021/10/31 02:01:36;;;;;;;8.00;3.50;;;;;;;9.67;100.00;95437.19;6365622;22;19998;-59
2021/10/31 02:04:06;;;;;;;5.10;3.05;;;;;;;9.64;100.00;95440.94;6365830;22;20029;-58
2021/10/31 02:06:37;;;;;;;3.60;3.08;;;;;;;9.64;100.00;95435.69;6365111;22;20018;-58
2021/10/31 02:09:02;;;;;;;4.55;3.10;;;;;;;9.64;100.00;95434.84;6365488;22;20338;-58
2021/10/31 02:11:29;;;;;;;5.28;3.47;;;;;;;9.60;100.00;95432.50;6366919;22;20002;-58
2021/10/31 02:13:58;;;;;;;3.00;2.80;;;;;;;9.59;100.00;95445.78;6367652;22;19998;-58
2021/10/31 02:16:25;;;;;;;3.03;2.67;;;;;;;9.59;100.00;95443.13;6367827;22;20400;-58
2021/10/31 02:18:56;;;;;;;2.67;2.47;;;;;;;9.60;100.00;95439.53;6367669;22;20002;-58
2021/10/31 02:21:26;;;;;;;3.63;2.40;;;;;;;9.61;100.00;95425.44;6367265;22;20029;-58
2021/10/31 02:23:52;;;;;;;3.15;2.67;;;;;;;9.62;100.00;95427.13;6367678;22;20006;-58
2021/10/31 02:26:18;;;;;;;3.08;2.78;;;;;;;9.62;100.00;95421.84;6367638;22;20403;-58
2021/10/31 02:28:57;;;;;;;3.15;2.30;;;;;;;9.63;100.00;95413.00;6367575;22;20017;-58
2021/10/31 02:31:23;;;;;;;4.03;2.10;;;;;;;9.64;100.00;95406.78;6367169;22;20062;-58
2021/10/31 02:33:49;;;;;;;2.47;2.28;;;;;;;9.63;100.00;95401.66;6366291;22;20006;-58
2021/10/31 02:36:15;;;;;;;2.53;2.42;;;;;;;9.62;100.00;95399.97;6367023;22;20312;-58
2021/10/31 02:38:40;;;;;;;2.60;2.40;;;;;;;9.65;100.00;95392.66;6366771;22;20008;-58
2021/10/31 02:41:05;;;;;;;2.28;2.17;;;;;;;9.65;100.00;95384.78;6366645;22;19998;-58
2021/10/31 02:43:31;;;;;;;2.25;2.10;;;;;;;9.65;100.00;95384.78;6366248;22;20052;-58
2021/10/31 02:45:56;;;;;;;2.78;2.58;;;;;;;9.63;100.00;95375.34;6367115;22;20030;-58
2021/10/31 02:48:23;;;;;;;3.25;2.58;;;;;;;9.54;100.00;95372.63;6366928;22;20063;-58
2021/10/31 02:50:50;;;;;;;2.70;2.50;;;;;;;9.51;100.00;95366.81;6367156;22;20055;-58
2021/10/31 02:53:23;;;;;;;4.20;2.70;;;;;;;9.51;100.00;95372.06;6367429;22;20002;-58
2021/10/31 02:55:56;;;;;;;2.95;2.50;;;;;;;9.50;100.00;95360.72;6366765;22;20343;-58
2021/10/31 02:58:24;;;;;;;2.95;2.45;;;;;;;9.49;100.00;95363.50;6367559;22;20058;-58
2021/10/31 03:00:55;;;;;;;2.90;2.70;;;;;;;9.48;100.00;95362.66;6366734;22;20005;-58
2021/10/31 03:03:21;;;;;;;2.88;2.67;;;;;;;9.50;100.00;95352.03;6366930;22;20026;-58
2021/10/31 03:05:52;;;;;;;2.88;2.35;;;;;;;9.51;100.00;95351.06;6366827;22;19998;-58
2021/10/31 03:08:18;;;;;;;3.00;2.42;;;;;;;9.52;100.00;95352.72;6367096;22;20002;-58
2021/10/31 03:10:55;;;;;;;3.78;2.58;;;;;;;9.53;100.00;95359.63;6366934;22;20017;-58
2021/10/31 03:13:20;;;;;;;2.63;2.42;;;;;;;9.54;100.00;95353.38;6365781;22;20006;-58
2021/10/31 03:15:46;;;;;;;2.30;2.10;;;;;;;9.55;100.00;95336.66;6366379;22;20097;-58
2021/10/31 03:18:12;;;;;;;1.80;1.70;;;;;;;9.54;100.00;95335.84;6366913;22;20052;-58
2021/10/31 03:20:38;;;;;;;1.75;1.65;;;;;;;9.57;100.00;95317.16;6366892;22;20006;-58
2021/10/31 03:23:04;;;;;;;2.58;2.35;;;;;;;9.60;100.00;95318.63;6366452;22;20357;-58
2021/10/31 03:25:30;;;;;;;5.28;2.25;;;;;;;9.62;100.00;95313.25;6367117;22;20077;-58
2021/10/31 03:27:55;;;;;;;2.70;2.00;;;;;;;9.66;100.00;95307.56;6366673;22;20065;-58
2021/10/31 03:30:21;;;;;;;1.88;1.77;;;;;;;9.67;100.00;95303.13;6366700;22;20346;-58
2021/10/31 03:32:46;;;;;;;2.63;1.85;;;;;;;9.66;100.00;95296.22;6366439;22;20037;-58
2021/10/31 03:35:12;;;;;;;1.70;1.60;;;;;;;9.66;100.00;95298.84;6367094;22;19999;-58
2021/10/31 03:37:37;;;;;;;2.00;1.90;;;;;;;9.64;100.00;95301.63;6366635;22;20419;-58
2021/10/31 03:40:04;;;;;;;1.80;1.70;;;;;;;9.64;100.00;95306.03;6366733;22;20127;-58
2021/10/31 03:42:29;;;;;;;2.88;1.75;;;;;;;9.59;100.00;95306.47;6366886;22;20006;-58
2021/10/31 03:44:55;;;;;;;1.90;1.80;;;;;;;9.53;100.00;95301.81;6366400;22;20009;-58
2021/10/31 03:47:23;;;;;;;3.40;2.10;;;;;;;9.50;100.00;95297.66;6366414;22;20051;-58
2021/10/31 03:49:49;;;;;;;1.83;1.73;;;;;;;9.57;100.00;95297.91;6366560;22;19998;-58
2021/10/31 03:52:14;;;;;;;3.13;2.50;;;;;;;9.53;100.00;95307.06;6366476;22;20478;-58
2021/10/31 03:54:40;;;;;;;4.10;3.80;;;;;;;9.53;100.00;95299.19;6366522;22;19998;-58
2021/10/31 03:57:06;;;;;;;6.38;3.72;;;;;;;9.53;100.00;95293.94;6366731;22;20021;-58
2021/10/31 03:59:31;;;;;;;5.35;4.18;;;;;;;9.52;100.00;95289.63;6366547;22;20055;-58
2021/10/31 04:01:57;;;;;;;4.97;4.35;;;;;;;9.50;100.00;95284.53;6366353;22;19998;-58
2021/10/31 04:04:22;;;;;;;4.90;4.45;;;;;;;9.50;100.00;95291.59;6366890;22;20002;-58
2021/10/31 04:06:47;;;;;;;6.22;4.10;;;;;;;9.50;100.00;95294.22;6366192;22;20384;-58
2021/10/31 04:09:13;;;;;;;3.75;3.42;;;;;;;9.50;100.00;95297.66;6366619;22;20017;-58
2021/10/31 04:11:38;;;;;;;4.78;3.05;;;;;;;9.52;100.00;95298.38;6366002;22;20007;-58
2021/10/31 04:14:04;;;;;;;9.40;3.50;;;;;;;9.51;100.00;95299.34;6366755;22;19998;-58
2021/10/31 04:16:29;;;;;;;4.18;2.40;;;;;;;9.50;100.00;95291.59;6366313;22;20067;-58
2021/10/31 04:18:55;;;;;;;2.40;2.20;;;;;;;9.46;100.00;95294.50;6366219;22;20099;-58
2021/10/31 04:21:21;;;;;;;2.53;2.30;;;;;;;9.42;100.00;95287.06;6366046;22;19998;-58
2021/10/31 04:23:46;;;;;;;2.47;2.10;;;;;;;9.43;100.00;95286.06;6364745;22;20009;-58
2021/10/31 04:26:12;;;;;;;3.08;2.10;;;;;;;9.42;100.00;95287.06;6366069;22;20150;-58
2021/10/31 04:28:38;;;;;;;2.40;2.30;;;;;;;9.41;100.00;95277.53;6366054;22;20013;-58
2021/10/31 04:31:03;;;;;;;4.10;3.90;;;;;;;9.41;100.00;95278.34;6366389;22;20016;-58
2021/10/31 04:33:28;;;;;;;4.45;4.10;;;;;;;9.40;100.00;95281.13;6365577;22;20044;-58
2021/10/31 04:35:54;;;;;;;5.45;5.00;;;;;;;9.33;100.00;95278.25;6365952;22;20051;-58
2021/10/31 04:38:27;;;;;;;4.82;4.28;;;;;;;9.29;100.00;95275.09;6365710;22;20453;-58
2021/10/31 04:40:52;;;;;;;5.03;4.63;;;;;;;9.29;100.00;95280.34;6365941;22;20437;-58
2021/10/31 04:43:22;;;;;;;4.57;4.28;;;;;;;9.29;100.00;95287.38;6365927;22;20002;-58
2021/10/31 04:45:48;;;;;;;4.97;4.57;;;;;;;9.29;100.00;95279.50;6365891;22;19999;-58
2021/10/31 04:48:13;;;;;;;5.07;4.78;;;;;;;9.28;100.00;95288.34;6364123;22;20456;-58
2021/10/31 04:50:39;;;;;;;4.65;4.35;;;;;;;9.28;100.00;95288.34;6366225;22;20009;-58
2021/10/31 04:53:07;;;;;;;5.22;4.82;;;;;;;9.27;100.00;95291.94;6366214;22;20434;-58
2021/10/31 04:55:33;;;;;;;5.07;4.60;;;;;;;9.22;100.00;95281.06;6365768;22;20061;-58
2021/10/31 04:57:59;;;;;;;4.88;4.20;;;;;;;9.20;100.00;95283.00;6365752;22;19998;-59
2021/10/31 05:00:25;;;;;;;4.20;3.90;;;;;;;9.17;100.00;95282.31;6365636;22;20412;-58
2021/10/31 05:02:51;;;;;;;6.40;4.47;;;;;;;9.14;100.00;95282.56;6365861;22;20025;-58
2021/10/31 05:05:21;;;;;;;4.00;3.80;;;;;;;9.13;100.00;95282.75;6365933;22;19999;-58
2021/10/31 05:07:49;;;;;;;4.90;4.60;;;;;;;9.09;100.00;95269.06;6365442;22;19998;-58
2021/10/31 05:10:16;;;;;;;5.63;5.22;;;;;;;9.07;100.00;95278.06;6365990;22;20013;-58
2021/10/31 05:12:41;;;;;;;9.13;8.38;;;;;;;9.11;100.00;95275.00;6365822;22;20012;-59
2021/10/31 05:15:08;;;;;;;8.20;7.40;;;;;;;9.08;100.00;95272.66;6365469;22;20014;-58
2021/10/31 05:17:34;;;;;;;9.13;7.10;;;;;;;9.07;100.00;95271.00;6365811;22;20011;-58
2021/10/31 05:19:59;;;;;;;10.70;9.70;;;;;;;9.06;100.00;95271.97;6365529;22;20002;-58
2021/10/31 05:22:25;;;;;;;9.40;8.60;;;;;;;9.06;100.00;95268.50;6365514;22;20438;-58
2021/10/31 05:24:50;;;;;;;5.57;5.18;;;;;;;9.01;100.00;95275.03;6365484;22;19999;-58
2021/10/31 05:27:16;;;;;;;5.68;5.28;;;;;;;9.00;100.00;95281.25;6365360;22;20056;-59
2021/10/31 05:29:41;;;;;;;5.70;5.15;;;;;;;9.00;100.00;95280.44;6365908;22;20006;-58
2021/10/31 05:32:07;;;;;;;5.72;5.20;;;;;;;8.96;100.00;95286.94;6365726;22;20081;-58
2021/10/31 05:34:32;;;;;;;6.57;5.97;;;;;;;8.93;100.00;95285.41;6365163;22;20013;-58
2021/10/31 05:36:57;;;;;;;8.15;7.43;;;;;;;8.89;100.00;95284.84;6365351;22;20014;-58
2021/10/31 05:39:23;;;;;;;7.22;6.57;;;;;;;8.89;100.00;95284.03;6365557;22;20052;-58
2021/10/31 05:41:49;;;;;;;6.20;5.57;;;;;;;8.85;100.00;95287.94;6365531;22;20064;-58
2021/10/31 05:44:14;;;;;;;5.93;5.32;;;;;;;8.85;100.00;95283.50;6366362;22;20379;-59
2021/10/31 05:46:39;;;;;;;5.90;5.50;;;;;;;8.80;100.00;95271.75;6368232;22;20002;-58
2021/10/31 05:49:05;;;;;;;6.60;6.00;;;;;;;8.77;100.00;95277.28;6367323;22;20055;-58
2021/10/31 05:51:31;;;;;;;6.45;5.93;;;;;;;8.77;100.00;95270.25;6367474;22;20143;-59
2021/10/31 05:53:56;;;;;;;6.88;6.38;;;;;;;8.75;100.00;95269.56;6367655;22;20002;-58
2021/10/31 05:56:22;;;;;;;6.22;5.72;;;;;;;8.73;100.00;95268.84;6367607;22;20009;-58
2021/10/31 05:58:47;;;;;;;7.32;6.28;;;;;;;8.70;100.00;95259.50;6367222;22;20492;-58
2021/10/31 06:01:13;;;;;;;5.30;4.90;;;;;;;8.66;100.00;95257.28;6368030;22;20028;-58
2021/10/31 06:03:38;;;;;;;5.03;4.65;;;;;;;8.67;100.00;95253.69;6367650;22;20014;-58
2021/10/31 06:06:04;;;;;;;5.63;4.95;;;;;;;8.67;100.00;95249.28;6367210;22;20438;-58
2021/10/31 06:08:29;;;;;;;4.95;4.55;;;;;;;8.67;100.00;95248.44;6367281;22;20010;-58
2021/10/31 06:10:54;;;;;;;4.60;4.30;;;;;;;8.68;100.00;95250.09;6367078;22;20092;-58
2021/10/31 06:13:20;;;;;;;4.50;4.10;;;;;;;8.66;100.00;95246.78;6367474;22;20006;-58
2021/10/31 06:15:48;;;;;;;5.78;4.60;;;;;;;8.73;100.00;95232.13;6367148;22;20010;-58
2021/10/31 06:18:18;;;;;;;5.15;4.85;;;;;;;8.76;100.00;95237.09;6368015;22;20100;-59
2021/10/31 06:20:44;;;;;;;6.53;4.32;;;;;;;8.76;100.00;95246.75;6367512;22;19998;-59
2021/10/31 06:23:10;;;;;;;4.70;4.40;;;;;;;8.72;100.00;95233.94;6367303;22;20077;-58
2021/10/31 06:25:35;;;;;;;4.93;4.53;;;;;;;8.74;100.00;95242.47;6367454;22;20040;-58
2021/10/31 06:28:01;;;;;;;4.55;4.25;;;;;;;8.74;100.00;95247.72;6367236;22;20036;-58
2021/10/31 06:30:26;;;;;;;4.20;3.83;;;;;;;8.73;100.00;95248.69;6367399;22;20003;-58
2021/10/31 06:32:52;;;;;;;5.03;4.63;;;;;;;8.76;100.00;95242.34;6367038;22;20033;-58
2021/10/31 06:35:17;;;;;;;4.85;4.55;;;;;;;8.77;100.00;95243.16;6367297;22;20068;-58
2021/10/31 06:37:43;;;;;;;5.45;5.05;;;;;;;8.75;100.00;95245.94;6367600;22;20010;-58
2021/10/31 06:40:09;;;;;;;7.70;4.20;;;;;;;8.79;100.00;95247.31;6367563;22;20006;-58
2021/10/31 06:42:35;;;;;;;5.03;4.05;;;;;;;8.84;100.00;95234.59;6367204;22;20002;-58
2021/10/31 06:45:00;;;;;;;4.75;4.38;;;;;;;8.86;100.00;95232.66;6366748;22;20009;-58
2021/10/31 06:47:26;;;;;;;5.75;5.10;;;;;;;8.91;100.00;95234.00;6365324;22;20082;-58
2021/10/31 06:49:51;;;;;;;6.25;5.70;;;;;;;8.90;100.00;95235.81;6367396;22;20446;-58
2021/10/31 06:52:17;;;;;;;6.03;5.53;;;;;;;8.89;100.00;95240.22;6367084;22;20006;-58
2021/10/31 06:54:43;;;;;;;6.97;6.32;;;;;;;8.91;100.00;95239.25;6367114;22;20010;-59
2021/10/31 06:57:08;;;;;;;6.85;6.35;;;;;;;8.94;100.00;95245.06;6366380;22;20006;-58
2021/10/31 06:59:34;;;;;;;6.38;5.97;;;;;;;8.92;100.00;95256.66;6366854;22;20391;-58
2021/10/31 07:02:00;;;;;;;19.55;17.95;;;;;;;8.91;100.00;95255.00;6366873;22;20003;-58
2021/10/31 07:04:26;;;;;;;27.55;25.00;;;;;;;8.94;100.00;95259.97;6367300;22;20491;-59
2021/10/31 07:06:53;;;;;;;24.08;21.88;;;;;;;8.98;100.00;95262.19;6367024;22;20044;-59
2021/10/31 07:09:19;;;;;;;21.40;19.40;;;;;;;9.03;100.00;95256.50;6367535;22;20036;-59
2021/10/31 07:11:44;;;;;;;18.45;16.75;;;;;;;9.08;100.00;95251.66;6367049;22;20020;-58
2021/10/31 07:14:10;;;;;;;22.15;20.15;;;;;;;9.09;100.00;95250.69;6366541;22;20009;-59
2021/10/31 07:16:35;;;;;;;16.08;14.75;;;;;;;9.09;100.00;95252.50;6367329;22;20002;-59
2021/10/31 07:19:01;;;;;;;10.85;9.98;;;;;;;9.11;100.00;95247.91;6366902;22;20003;-58
2021/10/31 07:21:27;;;;;;;9.70;8.90;;;;;;;9.16;100.00;95240.44;6367105;22;20018;-58
2021/10/31 07:23:52;;;;;;;8.02;7.32;;;;;;;9.20;100.00;95246.22;6366847;22;20275;-59
2021/10/31 07:26:18;;;;;;;9.27;7.60;;;;;;;9.22;100.00;95241.66;6367278;22;20003;-59
2021/10/31 07:28:43;;;;;;;7.25;6.57;;;;;;;9.29;100.00;95243.56;6367555;22;20009;-59
2021/10/31 07:31:10;;;;;;;7.70;7.00;;;;;;;9.37;100.00;95249.88;6366474;22;20044;-60
2021/10/31 07:33:35;;;;;;;9.93;9.07;;;;;;;9.44;100.00;95251.78;6366583;22;19999;-60
2021/10/31 07:36:01;;;;;;;9.55;8.75;;;;;;;9.51;100.00;95245.94;6365338;22;20006;-59
2021/10/31 07:38:27;;;;;;;7.63;7.03;;;;;;;9.54;100.00;95248.28;6366452;22;20347;-59
2021/10/31 07:40:53;;;;;;;7.18;6.55;;;;;;;9.62;100.00;95240.50;6366853;22;20048;-60
2021/10/31 07:43:19;;;;;;;6.47;5.88;;;;;;;9.70;100.00;95239.75;6367057;22;20025;-59
2021/10/31 07:45:44;;;;;;;7.25;6.68;;;;;;;9.79;100.00;95238.88;6366971;22;20026;-60
2021/10/31 07:48:10;;;;;;;5.65;5.25;;;;;;;9.86;100.00;95236.47;6367003;22;20013;-60
2021/10/31 07:50:37;;;;;;;5.13;4.72;;;;;;;9.94;100.00;95231.28;6366502;22;20452;-60
2021/10/31 07:53:04;;;;;;;6.47;5.03;;;;;;;10.02;100.00;95230.56;6366375;22;20002;-59
2021/10/31 07:55:32;;;;;;;5.63;4.72;;;;;;;10.09;100.00;95234.22;6366471;22;20002;-60
2021/10/31 07:58:00;;;;;;;4.68;4.28;;;;;;;10.18;100.00;95227.25;6366779;22;20003;-59
2021/10/31 08:00:29;;;;;;;6.22;3.70;;;;;;;10.29;100.00;95221.75;6366850;22;20072;-59
2021/10/31 08:02:55;;;;;;;4.82;4.00;;;;;;;10.50;100.00;95225.91;6366452;22;20346;-59
2021/10/31 08:05:21;;;;;;;4.63;4.32;;;;;;;10.50;100.00;95231.16;6367131;22;20003;-59
2021/10/31 08:07:47;;;;;;;5.03;4.63;;;;;;;10.48;100.00;95227.84;6365931;22;20635;-59
2021/10/31 08:10:12;;;;;;;5.35;4.95;;;;;;;10.46;100.00;95229.78;6366422;22;20003;-59
2021/10/31 08:12:38;;;;;;;6.90;6.28;;;;;;;10.48;100.00;95224.41;6366038;22;20006;-59
2021/10/31 08:15:04;;;;;;;8.50;7.60;;;;;;;10.46;100.00;95217.47;6366190;22;20335;-59
2021/10/31 08:17:29;;;;;;;8.40;7.63;;;;;;;10.56;100.00;95216.53;6366233;22;20338;-59
2021/10/31 08:19:54;;;;;;;7.93;7.22;;;;;;;10.66;100.00;95209.41;6366745;22;19998;-59
2021/10/31 08:22:20;;;;;;;7.57;6.88;;;;;;;10.79;100.00;95203.72;6366377;22;20017;-59
2021/10/31 08:24:46;;;;;;;6.25;5.65;;;;;;;10.91;100.00;95206.91;6366240;22;20012;-59
2021/10/31 08:27:11;;;;;;;6.05;5.53;;;;;;;11.03;100.00;95203.00;6366276;22;20003;-59
2021/10/31 08:29:37;;;;;;;4.85;4.40;;;;;;;11.13;100.00;95205.53;6366354;22;19998;-59
2021/10/31 08:32:03;;;;;;;4.88;4.47;;;;;;;11.17;100.00;95203.41;6366435;22;20482;-59
2021/10/31 08:34:29;;;;;;;7.63;6.53;;;;;;;11.23;100.00;95202.78;6365267;22;19998;-59
2021/10/31 08:36:54;;;;;;;7.22;5.80;;;;;;;11.27;100.00;95193.59;6366146;22;19998;-59
2021/10/31 08:39:26;;;;;;;6.90;6.00;;;;;;;11.28;100.00;95194.41;5118431;27;20764;-58
2021/10/31 08:41:52;;;;;;;7.00;5.70;;;;;;;11.30;100.00;95200.34;5112911;28;20036;-58
2021/10/31 08:44:17;;;;;;;6.30;5.70;;;;;;;11.36;100.00;95189.16;5110074;27;20369;-58
2021/10/31 08:46:43;;;;;;;6.57;5.97;;;;;;;11.49;100.00;95190.53;5118106;27;20091;-56
2021/10/31 08:49:09;;;;;;;6.68;6.07;;;;;;;11.56;100.00;95184.47;5116593;28;20032;-58
2021/10/31 08:51:35;;;;;;;9.73;6.57;;;;;;;11.65;100.00;95180.03;5095514;28;20437;-58
2021/10/31 08:54:01;;;;;;;9.02;6.40;;;;;;;11.78;100.00;95173.47;5118566;28;20019;-58
2021/10/31 08:56:30;;;;;;;7.22;6.57;;;;;;;11.88;100.00;95167.03;5112953;27;20046;-58
2021/10/31 08:58:59;;;;;;;8.45;5.10;;;;;;;11.99;100.00;95175.66;5113087;27;20089;-58
2021/10/31 09:01:25;;;;;;;4.35;4.07;;;;;;;12.10;100.00;95177.97;5121843;27;20027;-58
2021/10/31 09:03:53;;;;;;;3.70;3.40;;;;;;;12.17;100.00;95167.59;5110294;28;20398;-58
2021/10/31 09:06:20;;;;;;;5.03;3.58;;;;;;;12.17;100.00;95159.69;5107654;28;20073;-58
2021/10/31 09:08:45;;;;;;;5.55;3.28;;;;;;;12.16;100.00;95161.50;5116456;27;20027;-58
2021/10/31 09:11:11;;;;;;;2.58;2.47;;;;;;;12.20;100.00;95153.25;5108834;27;20032;-58
2021/10/31 09:13:37;;;;;;;2.92;2.72;;;;;;;12.25;100.00;95157.03;5111505;27;20436;-58
2021/10/31 09:16:03;;;;;;;2.75;2.55;;;;;;;12.36;100.00;95161.16;5112975;28;20024;-58
2021/10/31 09:18:29;;;;;;;2.95;2.85;;;;;;;12.54;100.00;95161.00;5108927;28;20031;-58
2021/10/31 09:20:54;;;;;;;3.10;2.90;;;;;;;12.63;100.00;95153.03;5113763;28;20024;-58
2021/10/31 09:23:20;;;;;;;2.97;2.63;;;;;;;12.84;100.00;95155.97;5115537;28;20064;-58
2021/10/31 09:25:46;;;;;;;3.22;2.40;;;;;;;12.95;100.00;95149.50;5118427;27;20478;-58
2021/10/31 09:28:11;;;;;;;5.70;3.25;;;;;;;13.04;100.00;95145.84;5102890;28;20069;-58
2021/10/31 09:30:40;;;;;;;3.42;2.80;;;;;;;13.17;99.70;95150.59;5119256;27;20024;-58
2021/10/31 09:33:07;;;;;;;2.67;2.45;;;;;;;13.25;98.67;95143.63;5103550;27;20099;-58
2021/10/31 09:35:36;;;;;;;2.22;2.03;;;;;;;13.33;98.15;95140.91;5106869;28;20023;-58
2021/10/31 09:38:05;;;;;;;1.25;1.25;;;;;;;13.52;98.85;95128.31;5099973;27;20575;-58
2021/10/31 09:40:32;;;;;;;4.63;1.30;;;;;;;13.70;98.07;95136.78;5112324;28;20524;-58
2021/10/31 09:43:01;;;;;;;1.98;1.10;;;;;;;13.77;97.76;95134.28;5119309;27;20019;-58
2021/10/31 09:45:26;;;;;;;1.10;1.10;;;;;;;13.71;97.63;95135.00;5116719;27;20043;-58
2021/10/31 09:48:04;;;;;;;1.27;1.27;;;;;;;13.71;97.38;95135.78;5109237;28;20048;-58
2021/10/31 09:50:33;;;;;;;4.20;1.60;;;;;;;13.73;96.44;95127.69;5100359;28;20058;-58
2021/10/31 09:53:00;;;;;;;1.20;1.20;;;;;;;13.71;95.85;95127.84;5098716;28;20024;-58
2021/10/31 09:55:26;;;;;;;1.00;1.00;;;;;;;13.75;95.59;95133.63;5091396;28;20402;-58
2021/10/31 09:57:52;;;;;;;1.60;1.13;;;;;;;13.85;95.18;95130.75;5085326;28;20027;-58
2021/10/31 10:00:21;;;;;;;1.30;1.20;;;;;;;13.95;94.92;95123.38;5098148;28;20085;-58
2021/10/31 10:03:04;;;;;;;1.23;1.00;;;;;;;14.01;93.27;95120.03;5087409;28;20119;-58
2021/10/31 10:05:30;;;;;;;1.00;1.00;;;;;;;14.11;93.28;95117.13;5097301;28;20030;-58
2021/10/31 10:08:13;;;;;;;1.00;1.00;;;;;;;14.25;92.08;95110.22;5098996;28;20024;-58
2021/10/31 10:10:53;;;;;;;1.23;1.13;;;;;;;14.40;90.48;95107.66;5098906;27;20540;-58
2021/10/31 10:13:28;;;;;;;0.90;0.90;;;;;;;14.55;89.49;95099.72;5091884;28;20028;-58
2021/10/31 10:16:29;;;;;;;0.70;0.70;;;;;;;14.68;87.52;95092.94;5100264;28;20031;-58
2021/10/31 10:18:56;;;;;;;1.80;1.10;;;;;;;14.80;88.49;95080.94;5081472;28;20760;-58
2021/10/31 10:21:25;;;;;;;3.92;0.90;;;;;;;14.96;86.83;95084.41;5098162;28;20181;-58
2021/10/31 10:23:59;;;;;;;0.88;0.88;;;;;;;15.10;86.02;95080.91;5092663;28;20132;-58
2021/10/31 10:26:33;;;;;;;1.10;0.63;;;;;;;15.24;84.17;95068.63;5096798;28;20039;-57
2021/10/31 10:29:01;;;;;;;0.77;0.77;;;;;;;15.34;84.85;95060.34;5100556;28;20024;-58
2021/10/31 10:31:28;;;;;;;6.85;4.70;;;;;;;15.52;84.30;95059.13;5098245;28;20070;-58
2021/10/31 10:33:53;;;;;;;2.22;1.98;;;;;;;15.74;82.91;95065.28;5086790;28;20550;-58
2021/10/31 10:36:20;;;;;;;1.00;0.88;;;;;;;15.95;80.70;95056.50;5088565;28;20112;-57
2021/10/31 10:39:12;;;;;;;0.90;0.90;;;;;;;16.18;78.03;95045.66;5095929;28;20080;-58
2021/10/31 10:41:37;;;;;;;0.80;0.80;;;;;;;16.41;77.44;95043.78;5095452;28;20028;-58
2021/10/31 10:44:20;;;;;;;0.73;0.73;;;;;;;16.58;75.07;95041.66;5099098;28;20015;-58
2021/10/31 10:46:48;;;;;;;0.90;0.80;;;;;;;16.75;75.05;95039.47;5094988;28;20025;-57
2021/10/31 10:49:17;;;;;;;0.65;0.65;;;;;;;16.92;75.78;95023.22;5101820;28;20008;-57
2021/10/31 10:52:06;;;;;;;4.28;0.73;;;;;;;17.07;72.93;95017.78;5098184;28;20286;-57
2021/10/31 10:54:35;;;;;;;0.80;0.80;;;;;;;17.23;74.74;95008.63;5098289;28;20035;-58
2021/10/31 10:57:06;;;;;;;1.38;0.57;;;;;;;17.52;66.90;94998.63;5087151;28;20032;-58
2021/10/31 10:59:34;;;;;;;2.35;0.90;;;;;;;17.58;68.72;95005.84;5102906;28;20027;-58
2021/10/31 11:02:19;;;;;;;1.75;0.90;;;;;;;17.73;68.68;95006.44;5096286;28;20217;-58
2021/10/31 11:04:51;;;;;;;1.05;0.90;;;;;;;17.81;69.25;94997.44;5094937;28;20065;-58
2021/10/31 11:07:17;;;;;;;2.05;1.85;;;;;;;17.97;69.61;94998.88;5093765;28;20028;-58
2021/10/31 11:09:42;;;;;;;1.13;1.13;;;;;;;18.07;66.80;94995.03;5102335;28;20031;-57
2021/10/31 11:12:29;;;;;;;7.78;3.08;;;;;;;18.18;68.21;94989.06;5096759;28;20028;-57
2021/10/31 11:15:05;;;;;;;2.42;1.95;;;;;;;18.30;67.71;94991.91;5090164;28;20471;-58
2021/10/31 11:17:31;;;;;;;8.52;0.70;;;;;;;18.50;62.70;94997.22;5092406;28;20028;-58
2021/10/31 11:19:57;;;;;;;0.32;0.32;;;;;;;18.87;58.60;94978.81;5091220;28;20041;-57
2021/10/31 11:22:24;;;;;;;1.80;0.65;;;;;;;18.77;61.19;94975.81;5091382;28;20028;-58
2021/10/31 11:24:51;;;;;;;0.52;0.52;;;;;;;18.96;60.68;94978.59;5088700;28;20076;-58
2021/10/31 11:27:19;;;;;;;2.20;0.75;;;;;;;19.06;61.87;94975.50;5087386;28;20020;-58
2021/10/31 11:29:46;;;;;;;0.47;0.47;;;;;;;19.12;59.98;94969.31;5099377;28;20103;-58
2021/10/31 11:32:12;;;;;;;0.50;0.50;;;;;;;19.33;57.55;94969.00;5101745;28;20012;-57
2021/10/31 11:34:42;;;;;;;0.55;0.55;;;;;;;19.09;58.63;94972.41;5087433;28;20509;-58
2021/10/31 11:37:08;;;;;;;0.43;0.43;;;;;;;19.01;57.81;94968.97;5084781;28;20029;-59